createdAt,value
2022-10-14T00:01:24.015Z,98387.41
2022-10-14T00:03:50.725Z,98389.00
2022-10-14T00:06:19.546Z,98386.34
2022-10-14T00:08:47.476Z,98386.34
2022-10-14T00:11:16.108Z,98378.06
2022-10-14T00:13:42.575Z,98378.63
2022-10-14T00:16:18.649Z,98374.63
2022-10-14T00:18:45.161Z,98370.63
2022-10-14T00:21:11.618Z,98381.81
2022-10-14T00:23:38.356Z,98381.81
2022-10-14T00:26:05.291Z,98378.34
2022-10-14T00:28:31.851Z,98373.81
2022-10-14T00:30:59.646Z,98372.22
2022-10-14T00:33:26.249Z,98377.28
2022-10-14T00:36:04.586Z,98376.47
2022-10-14T00:38:31.259Z,98371.16
2022-10-14T00:40:57.907Z,98376.47
2022-10-14T00:43:25.312Z,98375.69
2022-10-14T00:45:51.781Z,98370.63
2022-10-14T00:48:18.968Z,98370.88
2022-10-14T00:50:46.575Z,98364.22
2022-10-14T00:53:13.916Z,98365.81
2022-10-14T00:55:41.079Z,98367.94
2022-10-14T00:58:07.552Z,98365.00
2022-10-14T01:00:34.104Z,98373.00
2022-10-14T01:03:00.827Z,98363.66
2022-10-14T01:05:31.743Z,98369.25
2022-10-14T01:08:21.159Z,98362.06
2022-10-14T01:10:53.563Z,98366.59
2022-10-14T01:13:27.351Z,98366.59
2022-10-14T01:15:59.516Z,98363.13
2022-10-14T01:18:25.864Z,98367.66
2022-10-14T01:21:00.758Z,98369.53
2022-10-14T01:23:32.430Z,98368.97
2022-10-14T01:26:20.765Z,98363.41
2022-10-14T01:29:24.990Z,98360.75
2022-10-14T01:31:58.156Z,98364.72
2022-10-14T01:34:27.285Z,98359.41
2022-10-14T01:36:59.277Z,98359.13
2022-10-14T01:39:27.738Z,98356.22
2022-10-14T01:42:11.645Z,98356.75
2022-10-14T01:44:41.108Z,98358.09
2022-10-14T01:47:07.597Z,98348.47
2022-10-14T01:49:39.884Z,98354.34
2022-10-14T01:52:10.696Z,98341.84
2022-10-14T01:54:39.541Z,98338.88
2022-10-14T01:57:08.311Z,98327.44
2022-10-14T01:59:35.043Z,98337.31
2022-10-14T02:02:01.586Z,98328.78
2022-10-14T02:04:28.104Z,98331.16
2022-10-14T02:07:05.941Z,98322.38
2022-10-14T02:09:41.765Z,98324.78
2022-10-14T02:12:29.631Z,98328.50
2022-10-14T02:15:39.602Z,98328.50
2022-10-14T02:18:06.808Z,98324.25
2022-10-14T02:20:42.452Z,98322.91
2022-10-14T02:23:13.308Z,98323.16
2022-10-14T02:25:40.510Z,98322.09
2022-10-14T02:28:08.176Z,98323.16
2022-10-14T02:30:38.030Z,98319.69
2022-10-14T02:33:04.734Z,98317.31
2022-10-14T02:35:31.227Z,98313.56
2022-10-14T02:37:57.900Z,98314.88
2022-10-14T02:40:31.172Z,98313.03
2022-10-14T02:42:57.618Z,98310.34
2022-10-14T02:45:26.076Z,98309.31
2022-10-14T02:47:53.001Z,98314.38
2022-10-14T02:50:20.048Z,98311.72
2022-10-14T02:52:46.682Z,98305.59
2022-10-14T02:55:13.155Z,98303.72
2022-10-14T02:57:39.615Z,98301.03
2022-10-14T03:00:06.535Z,98297.59
2022-10-14T03:02:32.996Z,98293.56
2022-10-14T03:04:59.457Z,98289.59
2022-10-14T03:07:26.000Z,98312.78
2022-10-14T03:09:52.954Z,98294.91
2022-10-14T03:12:19.917Z,98290.66
2022-10-14T03:14:46.542Z,98302.91
2022-10-14T03:17:13.046Z,98290.66
2022-10-14T03:19:39.505Z,98286.94
2022-10-14T03:22:05.957Z,98281.59
2022-10-14T03:24:32.437Z,98286.13
2022-10-14T03:26:58.913Z,98282.66
2022-10-14T03:29:25.391Z,98281.03
2022-10-14T03:31:51.885Z,98288.78
2022-10-14T03:34:18.684Z,98290.13
2022-10-14T03:36:45.151Z,98286.94
2022-10-14T03:39:11.735Z,98281.59
2022-10-14T03:41:38.219Z,98272.53
2022-10-14T03:44:04.698Z,98280.78
2022-10-14T03:46:31.449Z,98283.47
2022-10-14T03:48:58.006Z,98281.59
2022-10-14T03:51:24.720Z,98283.19
2022-10-14T03:53:51.172Z,98290.66
2022-10-14T03:56:17.648Z,98291.47
2022-10-14T03:58:44.105Z,98287.16
2022-10-14T04:01:10.580Z,98294.38
2022-10-14T04:03:37.036Z,98285.34
2022-10-14T04:06:03.598Z,98289.31
2022-10-14T04:08:30.051Z,98283.19
2022-10-14T04:10:56.826Z,98285.06
2022-10-14T04:13:23.281Z,98286.91
2022-10-14T04:15:49.839Z,98285.84
2022-10-14T04:18:16.327Z,98288.22
2022-10-14T04:20:42.789Z,98290.09
2022-10-14T04:23:09.248Z,98279.44
2022-10-14T04:25:38.244Z,98288.50
2022-10-14T04:28:04.874Z,98280.50
2022-10-14T04:30:31.323Z,98270.91
2022-10-14T04:32:57.787Z,98270.91
2022-10-14T04:35:24.248Z,98276.78
2022-10-14T04:37:50.721Z,98273.56
2022-10-14T04:40:17.268Z,98268.50
2022-10-14T04:42:43.723Z,98270.38
2022-10-14T04:45:10.459Z,98266.09
2022-10-14T04:47:36.929Z,98267.16
2022-10-14T04:50:03.488Z,98265.56
2022-10-14T04:52:29.965Z,98257.03
2022-10-14T04:54:56.422Z,98255.44
2022-10-14T04:57:22.948Z,98263.44
2022-10-14T04:59:49.429Z,98264.50
2022-10-14T05:02:15.963Z,98268.16
2022-10-14T05:04:42.473Z,98263.63
2022-10-14T05:07:08.936Z,98260.97
2022-10-14T05:09:35.421Z,98260.75
2022-10-14T05:12:02.261Z,98262.63
2022-10-14T05:14:29.558Z,98263.72
2022-10-14T05:16:56.046Z,98269.28
2022-10-14T05:19:22.533Z,98263.97
2022-10-14T05:21:49.014Z,98258.13
2022-10-14T05:24:15.506Z,98258.41
2022-10-14T05:26:42.275Z,98252.78
2022-10-14T05:29:10.424Z,98260.28
2022-10-14T05:31:37.126Z,98254.41
2022-10-14T05:34:03.663Z,98253.34
2022-10-14T05:36:30.166Z,98252.81
2022-10-14T05:38:58.711Z,98256.53
2022-10-14T05:41:25.668Z,98256.03
2022-10-14T05:43:52.118Z,98256.81
2022-10-14T05:46:18.601Z,98257.34
2022-10-14T05:48:45.059Z,98249.63
2022-10-14T05:51:11.545Z,98253.34
2022-10-14T05:53:39.865Z,98255.75
2022-10-14T05:56:08.066Z,98256.03
2022-10-14T05:58:34.666Z,98247.19
2022-10-14T06:01:04.688Z,98249.88
2022-10-14T06:03:31.191Z,98252.81
2022-10-14T06:05:57.747Z,98255.47
2022-10-14T06:08:24.776Z,98254.16
2022-10-14T06:10:51.968Z,98253.59
2022-10-14T06:13:18.690Z,98257.06
2022-10-14T06:15:45.145Z,98265.84
2022-10-14T06:18:11.626Z,98256.25
2022-10-14T06:20:38.077Z,98258.94
2022-10-14T06:23:04.601Z,98252.28
2022-10-14T06:25:31.073Z,98253.34
2022-10-14T06:28:04.764Z,98255.47
2022-10-14T06:30:31.825Z,98260.28
2022-10-14T06:32:58.352Z,98254.16
2022-10-14T06:35:24.858Z,98250.69
2022-10-14T06:37:51.459Z,98248.81
2022-10-14T06:40:17.981Z,98249.91
2022-10-14T06:42:44.544Z,98254.44
2022-10-14T06:45:11.020Z,98257.09
2022-10-14T06:47:37.625Z,98255.22
2022-10-14T06:50:04.390Z,98257.34
2022-10-14T06:52:30.909Z,98249.91
2022-10-14T06:54:57.821Z,98250.69
2022-10-14T06:57:24.287Z,98257.63
2022-10-14T06:59:50.744Z,98258.69
2022-10-14T07:02:17.217Z,98248.81
2022-10-14T07:04:43.678Z,98256.03
2022-10-14T07:07:10.159Z,98249.91
2022-10-14T07:09:36.613Z,98242.13
2022-10-14T07:12:03.157Z,98245.34
2022-10-14T07:14:29.650Z,98242.69
2022-10-14T07:16:56.375Z,98242.13
2022-10-14T07:19:22.880Z,98248.28
2022-10-14T07:21:49.439Z,98246.94
2022-10-14T07:24:15.980Z,98242.13
2022-10-14T07:26:42.479Z,98247.75
2022-10-14T07:29:08.944Z,98249.06
2022-10-14T07:31:35.582Z,98246.94
2022-10-14T07:34:02.048Z,98251.22
2022-10-14T07:36:28.520Z,98253.34
2022-10-14T07:38:54.978Z,98252.78
2022-10-14T07:41:23.063Z,98248.81
2022-10-14T07:43:54.054Z,98252.28
2022-10-14T07:46:29.203Z,98257.06
2022-10-14T07:48:57.922Z,98255.19
2022-10-14T07:51:25.117Z,98249.06
2022-10-14T07:53:52.979Z,98241.06
2022-10-14T07:56:20.629Z,98238.69
2022-10-14T07:58:47.265Z,98243.72
2022-10-14T08:01:15.488Z,98246.41
2022-10-14T08:03:42.843Z,98241.88
2022-10-14T08:06:09.392Z,98233.88
2022-10-14T08:08:35.965Z,98241.34
2022-10-14T08:11:10.799Z,98241.88
2022-10-14T08:13:40.574Z,98241.63
2022-10-14T08:16:17.921Z,98245.88
2022-10-14T08:18:44.812Z,98244.28
2022-10-14T08:21:11.364Z,98246.69
2022-10-14T08:23:37.842Z,98239.47
2022-10-14T08:26:04.485Z,98237.88
2022-10-14T08:28:30.961Z,98233.34
2022-10-14T08:30:57.440Z,98231.75
2022-10-14T08:33:23.985Z,98226.44
2022-10-14T08:35:53.955Z,98236.00
2022-10-14T08:38:25.116Z,98229.59
2022-10-14T08:41:27.049Z,98226.94
2022-10-14T08:44:22.897Z,98223.75
2022-10-14T08:46:56.630Z,98218.16
2022-10-14T08:49:32.710Z,98217.34
2022-10-14T08:52:08.386Z,98210.72
2022-10-14T08:54:43.370Z,98222.97
2022-10-14T08:57:16.588Z,98223.75
2022-10-14T08:59:43.105Z,98220.28
2022-10-14T09:02:21.033Z,98223.75
2022-10-14T09:04:47.723Z,98217.09
2022-10-14T09:07:16.933Z,98222.16
2022-10-14T09:09:44.797Z,98216.28
2022-10-14T09:12:16.737Z,98209.63
2022-10-14T09:14:46.210Z,98217.09
2022-10-14T09:17:24.105Z,98208.28
2022-10-14T09:19:52.200Z,98212.03
2022-10-14T09:22:18.954Z,98221.34
2022-10-14T09:24:48.201Z,98211.75
2022-10-14T09:27:18.568Z,98210.44
2022-10-14T09:30:00.597Z,98212.31
2022-10-14T09:32:33.457Z,98206.97
2022-10-14T09:34:59.946Z,98211.75
2022-10-14T09:37:33.961Z,98211.75
2022-10-14T09:40:09.161Z,98204.81
2022-10-14T09:43:12.696Z,98196.84
2022-10-14T09:45:58.696Z,98207.50
2022-10-14T09:48:44.673Z,98203.25
2022-10-14T09:51:22.020Z,98202.72
2022-10-14T09:53:51.904Z,98196.84
2022-10-14T09:56:30.615Z,98196.03
2022-10-14T09:58:57.432Z,98192.28
2022-10-14T10:01:33.014Z,98185.66
2022-10-14T10:04:05.552Z,98181.91
2022-10-14T10:06:32.283Z,98172.03
2022-10-14T10:08:59.993Z,98173.91
2022-10-14T10:11:28.360Z,98173.63
2022-10-14T10:13:54.895Z,98161.38
2022-10-14T10:16:31.349Z,98168.31
2022-10-14T10:18:58.087Z,98158.47
2022-10-14T10:21:26.352Z,98161.66
2022-10-14T10:23:58.002Z,98141.38
2022-10-14T10:26:33.642Z,98148.84
2022-10-14T10:29:02.813Z,98137.91
2022-10-14T10:31:52.402Z,98140.84
2022-10-14T10:34:44.353Z,98141.91
2022-10-14T10:37:26.210Z,98138.16
2022-10-14T10:40:07.799Z,98138.72
2022-10-14T10:42:43.998Z,98141.66
2022-10-14T10:45:21.096Z,98134.72
2022-10-14T10:48:08.715Z,98125.41
2022-10-14T10:50:37.875Z,98129.66
2022-10-14T10:53:13.812Z,98121.94
2022-10-14T10:55:58.762Z,98116.88
2022-10-14T10:58:48.275Z,98123.56
2022-10-14T11:01:31.766Z,98109.69
2022-10-14T11:04:16.515Z,98104.34
2022-10-14T11:07:24.043Z,98092.88
2022-10-14T11:10:25.713Z,98091.28
2022-10-14T11:13:06.250Z,98099.28
2022-10-14T11:16:10.702Z,98095.28
2022-10-14T11:19:09.760Z,98091.28
2022-10-14T11:21:45.438Z,98093.13
2022-10-14T11:24:33.610Z,98079.53
2022-10-14T11:27:03.141Z,98081.16
2022-10-14T11:29:39.312Z,98077.41
2022-10-14T11:32:35.239Z,98067.25
2022-10-14T11:35:43.891Z,98067.25
2022-10-14T11:38:15.837Z,98070.19
2022-10-14T11:40:54.523Z,98066.19
2022-10-14T11:43:32.255Z,98071.50
2022-10-14T11:46:22.928Z,98059.66
2022-10-14T11:48:59.343Z,98054.94
2022-10-14T11:51:41.931Z,98050.28
2022-10-14T11:54:14.812Z,98050.63
2022-10-14T11:56:50.707Z,98052.28
2022-10-14T11:59:23.337Z,98051.47
2022-10-14T12:01:52.037Z,98053.06
2022-10-14T12:04:22.942Z,98039.22
2022-10-14T12:06:53.069Z,98045.63
2022-10-14T12:09:30.488Z,98046.94
2022-10-14T12:11:58.051Z,98040.56
2022-10-14T12:14:34.155Z,98038.94
2022-10-14T12:17:04.134Z,98033.59
2022-10-14T12:19:30.787Z,98027.19
2022-10-14T12:22:12.946Z,98028.25
2022-10-14T12:24:41.134Z,98024.41
2022-10-14T12:27:10.481Z,98028.25
2022-10-14T12:29:47.746Z,98022.38
2022-10-14T12:32:23.682Z,98028.47
2022-10-14T12:34:53.661Z,98029.53
2022-10-14T12:37:31.614Z,98020.44
2022-10-14T12:40:07.097Z,98016.97
2022-10-14T12:42:44.025Z,98004.44
2022-10-14T12:45:24.055Z,98001.25
2022-10-14T12:48:02.756Z,98002.81
2022-10-14T12:50:36.296Z,97994.56
2022-10-14T12:53:06.196Z,97995.91
2022-10-14T12:55:36.848Z,97994.34
2022-10-14T12:58:04.435Z,97989.03
2022-10-14T13:00:40.570Z,97996.78
2022-10-14T13:03:17.922Z,97995.16
2022-10-14T13:05:44.759Z,97993.28
2022-10-14T13:08:20.336Z,97985.56
2022-10-14T13:10:48.900Z,97983.44
2022-10-14T13:13:42.408Z,97971.19
2022-10-14T13:16:10.128Z,97978.38
2022-10-14T13:18:42.662Z,97966.91
2022-10-14T13:21:10.595Z,97960.50
2022-10-14T13:23:38.269Z,97958.38
2022-10-14T13:26:25.803Z,97961.03
2022-10-14T13:29:04.926Z,97957.03
2022-10-14T13:31:59.325Z,97950.63
2022-10-14T13:34:51.672Z,97949.28
2022-10-14T13:37:35.090Z,97951.94
2022-10-14T13:40:21.926Z,97948.50
2022-10-14T13:42:54.869Z,97949.81
2022-10-14T13:45:22.357Z,97937.03
2022-10-14T13:47:48.862Z,97947.16
2022-10-14T13:50:21.127Z,97942.91
2022-10-14T13:53:01.036Z,97949.59
2022-10-14T13:55:28.437Z,97945.06
2022-10-14T13:58:13.808Z,97952.56
2022-10-14T14:00:57.847Z,97950.69
2022-10-14T14:03:34.384Z,97944.28
2022-10-14T14:06:02.028Z,97933.31
2022-10-14T14:08:46.587Z,97927.97
2022-10-14T14:11:19.747Z,97923.72
2022-10-14T14:14:19.463Z,97918.69
2022-10-14T14:16:59.060Z,97917.88
2022-10-14T14:19:27.105Z,97901.34
2022-10-14T14:22:19.852Z,97905.91
2022-10-14T14:24:47.166Z,97897.59
2022-10-14T14:27:21.456Z,97890.16
2022-10-14T14:29:49.226Z,97889.41
2022-10-14T14:32:22.838Z,97890.00
2022-10-14T14:34:50.040Z,97887.00
2022-10-14T14:37:47.755Z,97882.00
2022-10-14T14:40:25.128Z,97879.59
2022-10-14T14:42:53.271Z,97873.25
2022-10-14T14:45:35.282Z,97864.97
2022-10-14T14:48:02.708Z,97865.81
2022-10-14T14:50:43.327Z,97860.72
2022-10-14T14:53:29.998Z,97864.97
2022-10-14T14:55:56.340Z,97865.81
2022-10-14T14:58:24.327Z,97862.09
2022-10-14T15:00:52.827Z,97862.09
2022-10-14T15:03:19.298Z,97871.16
2022-10-14T15:05:50.684Z,97859.97
2022-10-14T15:08:21.501Z,97864.00
2022-10-14T15:10:48.303Z,97862.66
2022-10-14T15:13:42.517Z,97866.94
2022-10-14T15:16:08.981Z,97857.94
2022-10-14T15:18:42.547Z,97855.53
2022-10-14T15:21:13.094Z,97845.16
2022-10-14T15:24:00.209Z,97850.72
2022-10-14T15:26:34.608Z,97846.19
2022-10-14T15:32:10.002Z,97845.69
2022-10-14T15:34:37.288Z,97843.31
2022-10-14T15:37:03.770Z,97838.47
2022-10-14T15:39:30.273Z,97848.34
2022-10-14T15:41:56.752Z,97847.03
2022-10-14T15:44:23.223Z,97844.63
2022-10-14T15:47:08.158Z,97846.50
2022-10-14T15:49:37.745Z,97835.06
2022-10-14T15:52:04.779Z,97837.44
2022-10-14T15:54:31.249Z,97837.19
2022-10-14T15:56:57.908Z,97831.31
2022-10-14T15:59:24.525Z,97819.34
2022-10-14T16:01:51.211Z,97830.50
2022-10-14T16:04:19.613Z,97815.91
2022-10-14T16:06:46.335Z,97824.41
2022-10-14T16:09:13.224Z,97817.19
2022-10-14T16:11:39.704Z,97823.59
2022-10-14T16:14:08.149Z,97812.94
2022-10-14T16:16:36.723Z,97812.16
2022-10-14T16:19:03.833Z,97810.56
2022-10-14T16:21:30.556Z,97810.00
2022-10-14T16:23:58.895Z,97803.88
2022-10-14T16:26:25.633Z,97806.53
2022-10-14T16:28:53.283Z,97814.25
2022-10-14T16:31:21.284Z,97800.88
2022-10-14T16:33:51.265Z,97803.22
2022-10-14T16:36:17.871Z,97801.84
2022-10-14T16:38:44.347Z,97799.72
2022-10-14T16:41:11.198Z,97805.00
2022-10-14T16:43:37.664Z,97795.16
2022-10-14T16:46:04.528Z,97797.56
2022-10-14T16:48:32.099Z,97804.78
2022-10-14T16:50:58.679Z,97801.59
2022-10-14T16:53:40.451Z,97798.66
2022-10-14T16:56:35.242Z,97802.94
2022-10-14T16:59:03.823Z,97803.16
2022-10-14T17:01:30.548Z,97790.94
2022-10-14T17:03:57.479Z,97795.50
2022-10-14T17:06:24.659Z,97799.75
2022-10-14T17:08:51.335Z,97787.47
2022-10-14T17:11:17.980Z,97792.53
2022-10-14T17:13:44.489Z,97795.97
2022-10-14T17:16:10.999Z,97787.97
2022-10-14T17:18:37.500Z,97787.47
2022-10-14T17:21:09.001Z,97789.06
2022-10-14T17:23:36.812Z,97777.31
2022-10-14T17:26:04.131Z,97777.59
2022-10-14T17:28:30.636Z,97776.78
2022-10-14T17:30:57.563Z,97764.50
2022-10-14T17:33:26.005Z,97767.81
2022-10-14T17:35:59.297Z,97764.28
2022-10-14T17:38:26.451Z,97767.69
2022-10-14T17:40:53.223Z,97769.25
2022-10-14T17:43:20.454Z,97770.03
2022-10-14T17:45:46.909Z,97767.56
2022-10-14T17:48:13.380Z,97766.78
2022-10-14T17:50:39.910Z,97758.78
2022-10-14T17:53:06.364Z,97755.53
2022-10-14T17:55:35.549Z,97761.03
2022-10-14T17:58:02.035Z,97753.88
2022-10-14T18:00:28.644Z,97752.84
2022-10-14T18:02:55.160Z,97759.13
2022-10-14T18:05:21.642Z,97753.75
2022-10-14T18:07:48.092Z,97754.19
2022-10-14T18:10:16.122Z,97754.44
2022-10-14T18:12:42.583Z,97751.19
2022-10-14T18:15:09.758Z,97744.53
2022-10-14T18:17:36.536Z,97748.06
2022-10-14T18:20:06.491Z,97749.94
2022-10-14T18:22:32.973Z,97749.53
2022-10-14T18:24:59.466Z,97749.31
2022-10-14T18:27:26.124Z,97746.16
2022-10-14T18:29:52.619Z,97741.34
2022-10-14T18:32:19.515Z,97750.91
2022-10-14T18:34:46.055Z,97747.94
2022-10-14T18:37:12.519Z,97735.63
2022-10-14T18:39:39.256Z,97732.97
2022-10-14T18:42:05.732Z,97734.53
2022-10-14T18:44:32.199Z,97731.38
2022-10-14T18:46:58.667Z,97720.41
2022-10-14T18:49:25.129Z,97726.16
2022-10-14T18:51:53.120Z,97719.84
2022-10-14T18:54:20.307Z,97708.22
2022-10-14T18:56:48.199Z,97720.13
2022-10-14T18:59:17.758Z,97721.00
2022-10-14T19:01:44.403Z,97717.25
2022-10-14T19:04:14.963Z,97719.28
2022-10-14T19:06:42.507Z,97716.81
2022-10-14T19:09:14.842Z,97717.81
2022-10-14T19:11:41.548Z,97714.28
2022-10-14T19:14:08.258Z,97720.94
2022-10-14T19:16:36.880Z,97728.38
2022-10-14T19:19:10.148Z,97720.41
2022-10-14T19:21:40.136Z,97725.19
2022-10-14T19:24:08.160Z,97726.47
2022-10-14T19:26:35.557Z,97724.34
2022-10-14T19:29:04.280Z,97717.41
2022-10-14T19:31:34.276Z,97715.78
2022-10-14T19:34:01.666Z,97714.22
2022-10-14T19:36:28.207Z,97718.03
2022-10-14T19:38:58.411Z,97715.16
2022-10-14T19:41:25.709Z,97712.47
2022-10-14T19:43:53.620Z,97700.22
2022-10-14T19:46:20.789Z,97707.72
2022-10-14T19:48:47.246Z,97706.19
2022-10-14T19:51:14.098Z,97691.31
2022-10-14T19:53:40.603Z,97698.34
2022-10-14T19:56:08.688Z,97696.66
2022-10-14T19:58:37.656Z,97696.38
2022-10-14T20:01:13.643Z,97684.19
2022-10-14T20:03:40.629Z,97683.88
2022-10-14T20:06:07.385Z,97676.19
2022-10-14T20:08:33.875Z,97666.38
2022-10-14T20:11:04.410Z,97664.34
2022-10-14T20:13:30.866Z,97663.78
2022-10-14T20:16:00.999Z,97657.81
2022-10-14T20:18:32.338Z,97656.78
2022-10-14T20:21:03.706Z,97673.00
2022-10-14T20:23:31.149Z,97670.88
2022-10-14T20:26:05.284Z,97670.56
2022-10-14T20:28:31.810Z,97668.19
2022-10-14T20:30:58.315Z,97662.84
2022-10-14T20:33:24.762Z,97665.00
2022-10-14T20:36:03.931Z,97667.31
2022-10-14T20:38:30.468Z,97667.31
2022-10-14T20:41:03.520Z,97674.00
2022-10-14T20:43:29.984Z,97675.03
2022-10-14T20:45:56.517Z,97663.00
2022-10-14T20:48:23.059Z,97661.03
2022-10-14T20:50:49.596Z,97657.28
2022-10-14T20:53:16.060Z,97662.25
2022-10-14T20:55:42.515Z,97659.06
2022-10-14T20:58:09.325Z,97653.28
2022-10-14T21:00:36.141Z,97652.13
2022-10-14T21:03:02.688Z,97654.50
2022-10-14T21:05:29.151Z,97654.50
2022-10-14T21:07:55.628Z,97655.81
2022-10-14T21:10:22.151Z,97659.50
2022-10-14T21:12:49.653Z,97649.06
2022-10-14T21:15:16.190Z,97644.25
2022-10-14T21:17:47.867Z,97646.69
2022-10-14T21:20:15.538Z,97651.75
2022-10-14T21:22:42.145Z,97649.88
2022-10-14T21:25:09.925Z,97653.63
2022-10-14T21:27:36.775Z,97653.56
2022-10-14T21:30:03.667Z,97664.25
2022-10-14T21:32:30.153Z,97651.31
2022-10-14T21:34:56.601Z,97657.00
2022-10-14T21:37:23.596Z,97655.41
2022-10-14T21:39:50.060Z,97641.84
2022-10-14T21:42:16.569Z,97641.03
2022-10-14T21:44:43.018Z,97641.03
2022-10-14T21:47:09.591Z,97642.34
2022-10-14T21:49:36.061Z,97633.97
2022-10-14T21:52:02.566Z,97647.59
2022-10-14T21:54:29.032Z,97645.22
2022-10-14T21:59:22.909Z,97651.44
2022-10-14T22:01:49.728Z,97643.69
2022-10-14T22:04:16.190Z,97628.28
2022-10-14T22:06:42.639Z,97630.41
2022-10-14T22:09:09.111Z,97628.34
2022-10-14T22:11:39.911Z,97632.06
2022-10-14T22:14:10.528Z,97639.88
2022-10-14T22:16:36.988Z,97637.47
2022-10-14T22:19:04.558Z,97635.09
2022-10-14T22:21:32.159Z,97637.75
2022-10-14T22:23:58.863Z,97629.25
2022-10-14T22:26:25.793Z,97629.81
2022-10-14T22:29:05.761Z,97628.22
2022-10-14T22:31:35.274Z,97635.16
2022-10-14T22:34:03.200Z,97632.47
2022-10-14T22:36:29.814Z,97640.19
2022-10-14T22:38:56.955Z,97639.34
2022-10-14T22:41:23.774Z,97640.91
2022-10-14T22:43:54.774Z,97639.03
2022-10-14T22:46:23.471Z,97631.34
2022-10-14T22:48:50.443Z,97632.41
2022-10-14T22:51:18.809Z,97636.44
2022-10-14T22:53:45.824Z,97637.81
2022-10-14T22:56:14.142Z,97628.50
2022-10-14T22:58:40.639Z,97628.00
2022-10-14T23:01:11.062Z,97620.50
2022-10-14T23:03:37.639Z,97630.53
2022-10-14T23:06:05.872Z,97625.94
2022-10-14T23:08:32.775Z,97633.38
2022-10-14T23:10:59.571Z,97630.16
2022-10-14T23:13:26.127Z,97638.34
2022-10-14T23:15:56.188Z,97633.53
2022-10-14T23:18:23.738Z,97642.03
2022-10-14T23:20:50.272Z,97638.56
2022-10-14T23:23:16.807Z,97637.28
2022-10-14T23:25:43.584Z,97629.56
2022-10-14T23:28:10.083Z,97619.66
2022-10-14T23:30:36.903Z,97628.19
2022-10-14T23:33:03.461Z,97625.81
2022-10-14T23:35:30.244Z,97626.88
2022-10-14T23:37:56.722Z,97621.06
2022-10-14T23:40:23.185Z,97622.13
2022-10-14T23:50:09.190Z,97624.59
2022-10-14T23:52:35.663Z,97613.91
2022-10-14T23:55:03.161Z,97623.00
2022-10-14T23:57:29.636Z,97613.69
2022-10-14T23:59:56.096Z,97620.91
